Terminal Aerodrome Forecast
Issued by NWS

Home | Current Version | Previous Version | Text Only | Print | Product List | Glossary On
Versions: 1 2 3 4 5 6 7 8 9 10 11 12 13 14 15 16 17 18 19 20 21 22 23 24 25 26 27 28 29 30 31 32 33 34 35 36 37 38 39 40 41 42 43 44 45 46 47 48 49 50
021
FTUS45 KBOU 210640 AAA
TAFAPA
TAF AMD
KAPA 210640Z 2107/2206 17015KT P6SM SCT030 BKN060 OVC090
      TEMPO 2108/2111 4SM SHRA BR OVC015
     FM211100 19012KT P6SM VCSH SCT030 OVC050
     FM211400 36014KT P6SM VCSH SCT017 OVC025
      TEMPO 2114/2118 -SHRA BKN015
     FM211800 03008KT P6SM VCSH SCT030 BKN060 OVC100
      TEMPO 2118/2122 -SHRA BKN030
     FM220400 15006KT P6SM VCSH SCT040 BKN080=

USA.gov is the U.S. government's official web portal to all federal, state and local government web resources and services.